sensor_id;sensor_type;location;lat;lon;timestamp;P1;durP1;ratioP1;P2;durP2;ratioP2
14892;SDS011;7538;53.626;9.906;2022-11-27T00:01:15;29.00;;;13.60;;
14892;SDS011;7538;53.626;9.906;2022-11-27T00:03:43;22.27;;;12.90;;
14892;SDS011;7538;53.626;9.906;2022-11-27T00:06:14;25.25;;;13.68;;
14892;SDS011;7538;53.626;9.906;2022-11-27T00:08:43;25.73;;;14.47;;
14892;SDS011;7538;53.626;9.906;2022-11-27T00:11:14;23.38;;;11.75;;
14892;SDS011;7538;53.626;9.906;2022-11-27T00:13:43;27.93;;;14.10;;
14892;SDS011;7538;53.626;9.906;2022-11-27T00:16:12;29.50;;;14.03;;
14892;SDS011;7538;53.626;9.906;2022-11-27T00:18:40;23.37;;;11.90;;
14892;SDS011;7538;53.626;9.906;2022-11-27T00:21:09;24.80;;;12.97;;
14892;SDS011;7538;53.626;9.906;2022-11-27T00:23:37;16.92;;;11.57;;
14892;SDS011;7538;53.626;9.906;2022-11-27T00:26:04;21.43;;;12.03;;
14892;SDS011;7538;53.626;9.906;2022-11-27T00:28:33;27.43;;;12.07;;
14892;SDS011;7538;53.626;9.906;2022-11-27T00:31:01;24.13;;;10.83;;
14892;SDS011;7538;53.626;9.906;2022-11-27T00:33:30;22.80;;;10.17;;
14892;SDS011;7538;53.626;9.906;2022-11-27T00:36:00;18.73;;;10.53;;
14892;SDS011;7538;53.626;9.906;2022-11-27T00:38:27;22.70;;;10.00;;
14892;SDS011;7538;53.626;9.906;2022-11-27T00:40:57;19.43;;;9.17;;
14892;SDS011;7538;53.626;9.906;2022-11-27T00:43:24;19.53;;;10.23;;
14892;SDS011;7538;53.626;9.906;2022-11-27T00:45:52;24.57;;;10.80;;
14892;SDS011;7538;53.626;9.906;2022-11-27T00:48:19;25.03;;;10.60;;
14892;SDS011;7538;53.626;9.906;2022-11-27T00:50:46;26.53;;;11.57;;
14892;SDS011;7538;53.626;9.906;2022-11-27T00:53:13;18.17;;;9.67;;
14892;SDS011;7538;53.626;9.906;2022-11-27T00:55:40;23.97;;;9.60;;
14892;SDS011;7538;53.626;9.906;2022-11-27T00:58:07;16.87;;;8.87;;
14892;SDS011;7538;53.626;9.906;2022-11-27T01:00:33;16.17;;;8.73;;
14892;SDS011;7538;53.626;9.906;2022-11-27T01:03:02;18.93;;;10.10;;
14892;SDS011;7538;53.626;9.906;2022-11-27T01:05:29;26.20;;;9.50;;
14892;SDS011;7538;53.626;9.906;2022-11-27T01:07:56;24.03;;;9.87;;
14892;SDS011;7538;53.626;9.906;2022-11-27T01:10:22;18.00;;;8.60;;
14892;SDS011;7538;53.626;9.906;2022-11-27T01:12:49;22.57;;;9.13;;
14892;SDS011;7538;53.626;9.906;2022-11-27T01:15:16;16.17;;;9.30;;
14892;SDS011;7538;53.626;9.906;2022-11-27T01:17:43;23.33;;;9.87;;
14892;SDS011;7538;53.626;9.906;2022-11-27T01:20:11;17.67;;;8.83;;
14892;SDS011;7538;53.626;9.906;2022-11-27T01:22:38;17.20;;;8.20;;
14892;SDS011;7538;53.626;9.906;2022-11-27T01:25:06;22.40;;;10.40;;
14892;SDS011;7538;53.626;9.906;2022-11-27T01:27:33;20.77;;;8.40;;
14892;SDS011;7538;53.626;9.906;2022-11-27T01:30:00;18.57;;;8.87;;
14892;SDS011;7538;53.626;9.906;2022-11-27T01:32:27;16.17;;;7.83;;
14892;SDS011;7538;53.626;9.906;2022-11-27T01:34:54;20.63;;;8.90;;
14892;SDS011;7538;53.626;9.906;2022-11-27T01:37:22;17.03;;;8.30;;
14892;SDS011;7538;53.626;9.906;2022-11-27T01:39:49;23.33;;;8.90;;
14892;SDS011;7538;53.626;9.906;2022-11-27T01:42:16;16.40;;;7.77;;
14892;SDS011;7538;53.626;9.906;2022-11-27T01:44:47;16.67;;;8.13;;
14892;SDS011;7538;53.626;9.906;2022-11-27T01:47:26;17.03;;;7.83;;
14892;SDS011;7538;53.626;9.906;2022-11-27T01:50:00;18.70;;;8.47;;
14892;SDS011;7538;53.626;9.906;2022-11-27T01:52:43;21.80;;;7.90;;
14892;SDS011;7538;53.626;9.906;2022-11-27T01:55:14;20.47;;;9.13;;
14892;SDS011;7538;53.626;9.906;2022-11-27T01:57:46;15.37;;;7.53;;
14892;SDS011;7538;53.626;9.906;2022-11-27T02:00:15;18.23;;;7.90;;
14892;SDS011;7538;53.626;9.906;2022-11-27T02:02:43;16.77;;;8.50;;
14892;SDS011;7538;53.626;9.906;2022-11-27T02:05:12;19.20;;;8.23;;
14892;SDS011;7538;53.626;9.906;2022-11-27T02:07:42;14.57;;;8.07;;
14892;SDS011;7538;53.626;9.906;2022-11-27T02:10:10;18.57;;;8.00;;
14892;SDS011;7538;53.626;9.906;2022-11-27T02:12:40;12.67;;;7.43;;
14892;SDS011;7538;53.626;9.906;2022-11-27T02:15:13;13.43;;;6.97;;
14892;SDS011;7538;53.626;9.906;2022-11-27T02:17:47;15.70;;;7.00;;
14892;SDS011;7538;53.626;9.906;2022-11-27T02:20:26;11.67;;;6.73;;
14892;SDS011;7538;53.626;9.906;2022-11-27T02:23:09;12.70;;;6.77;;
14892;SDS011;7538;53.626;9.906;2022-11-27T02:26:16;16.60;;;7.40;;
14892;SDS011;7538;53.626;9.906;2022-11-27T02:29:03;15.67;;;6.87;;
14892;SDS011;7538;53.626;9.906;2022-11-27T02:31:33;12.97;;;6.67;;
14892;SDS011;7538;53.626;9.906;2022-11-27T02:34:07;13.97;;;7.10;;
14892;SDS011;7538;53.626;9.906;2022-11-27T02:36:42;14.73;;;7.07;;
14892;SDS011;7538;53.626;9.906;2022-11-27T02:39:15;14.30;;;6.03;;
14892;SDS011;7538;53.626;9.906;2022-11-27T02:41:48;12.00;;;6.30;;
14892;SDS011;7538;53.626;9.906;2022-11-27T02:44:20;17.33;;;6.60;;
14892;SDS011;7538;53.626;9.906;2022-11-27T02:46:48;12.90;;;6.73;;
14892;SDS011;7538;53.626;9.906;2022-11-27T02:49:16;13.73;;;6.83;;
14892;SDS011;7538;53.626;9.906;2022-11-27T02:51:45;12.37;;;6.23;;
14892;SDS011;7538;53.626;9.906;2022-11-27T02:54:16;10.87;;;6.73;;
14892;SDS011;7538;53.626;9.906;2022-11-27T02:56:45;13.90;;;6.53;;
14892;SDS011;7538;53.626;9.906;2022-11-27T02:59:14;11.10;;;6.37;;
14892;SDS011;7538;53.626;9.906;2022-11-27T03:01:46;8.83;;;5.90;;
14892;SDS011;7538;53.626;9.906;2022-11-27T03:04:19;16.90;;;7.10;;
14892;SDS011;7538;53.626;9.906;2022-11-27T03:06:52;14.43;;;7.93;;
14892;SDS011;7538;53.626;9.906;2022-11-27T03:09:23;15.33;;;7.90;;
14892;SDS011;7538;53.626;9.906;2022-11-27T03:11:54;11.73;;;7.53;;
14892;SDS011;7538;53.626;9.906;2022-11-27T03:14:22;20.30;;;9.10;;
14892;SDS011;7538;53.626;9.906;2022-11-27T03:16:53;16.93;;;8.27;;
14892;SDS011;7538;53.626;9.906;2022-11-27T03:19:29;13.80;;;8.10;;
14892;SDS011;7538;53.626;9.906;2022-11-27T03:22:02;18.40;;;9.60;;
14892;SDS011;7538;53.626;9.906;2022-11-27T03:24:31;21.03;;;9.97;;
14892;SDS011;7538;53.626;9.906;2022-11-27T03:27:00;22.13;;;9.93;;
14892;SDS011;7538;53.626;9.906;2022-11-27T03:29:30;25.40;;;10.40;;
14892;SDS011;7538;53.626;9.906;2022-11-27T03:32:04;19.53;;;8.47;;
14892;SDS011;7538;53.626;9.906;2022-11-27T03:34:31;29.63;;;11.67;;
14892;SDS011;7538;53.626;9.906;2022-11-27T03:36:58;25.50;;;11.50;;
14892;SDS011;7538;53.626;9.906;2022-11-27T03:39:25;24.60;;;11.37;;
14892;SDS011;7538;53.626;9.906;2022-11-27T03:42:00;24.80;;;10.40;;
14892;SDS011;7538;53.626;9.906;2022-11-27T03:44:36;17.30;;;9.47;;
14892;SDS011;7538;53.626;9.906;2022-11-27T03:47:11;17.07;;;9.83;;
14892;SDS011;7538;53.626;9.906;2022-11-27T03:49:55;23.67;;;10.80;;
14892;SDS011;7538;53.626;9.906;2022-11-27T03:52:30;23.13;;;10.23;;
14892;SDS011;7538;53.626;9.906;2022-11-27T03:55:06;26.87;;;11.20;;
14892;SDS011;7538;53.626;9.906;2022-11-27T03:57:39;18.37;;;10.00;;
14892;SDS011;7538;53.626;9.906;2022-11-27T04:00:10;24.27;;;11.87;;
14892;SDS011;7538;53.626;9.906;2022-11-27T04:02:40;27.53;;;11.67;;
14892;SDS011;7538;53.626;9.906;2022-11-27T04:05:08;24.33;;;10.90;;
14892;SDS011;7538;53.626;9.906;2022-11-27T04:07:36;20.73;;;10.93;;
14892;SDS011;7538;53.626;9.906;2022-11-27T04:10:03;24.13;;;10.87;;
14892;SDS011;7538;53.626;9.906;2022-11-27T04:12:31;19.00;;;10.70;;
14892;SDS011;7538;53.626;9.906;2022-11-27T04:14:58;25.27;;;10.03;;
14892;SDS011;7538;53.626;9.906;2022-11-27T04:17:25;23.27;;;10.50;;
14892;SDS011;7538;53.626;9.906;2022-11-27T04:19:53;22.93;;;10.80;;
14892;SDS011;7538;53.626;9.906;2022-11-27T04:22:20;23.20;;;11.60;;
14892;SDS011;7538;53.626;9.906;2022-11-27T04:24:47;23.57;;;9.90;;
14892;SDS011;7538;53.626;9.906;2022-11-27T04:27:14;21.20;;;10.90;;
14892;SDS011;7538;53.626;9.906;2022-11-27T04:29:41;15.70;;;10.10;;
14892;SDS011;7538;53.626;9.906;2022-11-27T04:32:08;15.30;;;9.17;;
14892;SDS011;7538;53.626;9.906;2022-11-27T04:34:35;24.40;;;10.20;;
14892;SDS011;7538;53.626;9.906;2022-11-27T04:37:03;18.00;;;10.33;;
14892;SDS011;7538;53.626;9.906;2022-11-27T04:39:30;21.17;;;10.40;;
14892;SDS011;7538;53.626;9.906;2022-11-27T04:41:57;24.17;;;11.70;;
14892;SDS011;7538;53.626;9.906;2022-11-27T04:44:24;22.83;;;11.90;;
14892;SDS011;7538;53.626;9.906;2022-11-27T04:46:51;26.30;;;12.23;;
14892;SDS011;7538;53.626;9.906;2022-11-27T04:49:18;27.50;;;12.23;;
14892;SDS011;7538;53.626;9.906;2022-11-27T04:51:45;17.67;;;10.80;;
14892;SDS011;7538;53.626;9.906;2022-11-27T04:54:13;26.20;;;12.17;;
14892;SDS011;7538;53.626;9.906;2022-11-27T04:56:40;21.97;;;11.23;;
14892;SDS011;7538;53.626;9.906;2022-11-27T04:59:06;27.40;;;11.70;;
14892;SDS011;7538;53.626;9.906;2022-11-27T05:01:33;27.63;;;12.90;;
14892;SDS011;7538;53.626;9.906;2022-11-27T05:04:01;22.70;;;12.30;;
14892;SDS011;7538;53.626;9.906;2022-11-27T05:06:27;30.37;;;14.30;;
14892;SDS011;7538;53.626;9.906;2022-11-27T05:08:54;28.27;;;14.17;;
14892;SDS011;7538;53.626;9.906;2022-11-27T05:11:25;32.27;;;13.67;;
14892;SDS011;7538;53.626;9.906;2022-11-27T05:13:52;28.80;;;15.10;;
14892;SDS011;7538;53.626;9.906;2022-11-27T05:16:39;34.73;;;15.33;;
14892;SDS011;7538;53.626;9.906;2022-11-27T05:19:07;24.10;;;14.47;;
14892;SDS011;7538;53.626;9.906;2022-11-27T05:21:34;30.33;;;15.10;;
14892;SDS011;7538;53.626;9.906;2022-11-27T05:24:01;26.90;;;14.50;;
14892;SDS011;7538;53.626;9.906;2022-11-27T05:26:30;28.90;;;16.00;;
14892;SDS011;7538;53.626;9.906;2022-11-27T05:28:57;39.80;;;17.07;;
14892;SDS011;7538;53.626;9.906;2022-11-27T05:31:24;34.17;;;17.50;;
14892;SDS011;7538;53.626;9.906;2022-11-27T05:33:51;39.33;;;17.97;;
14892;SDS011;7538;53.626;9.906;2022-11-27T05:36:17;33.23;;;18.60;;
14892;SDS011;7538;53.626;9.906;2022-11-27T05:38:45;35.17;;;19.30;;
14892;SDS011;7538;53.626;9.906;2022-11-27T05:41:11;40.37;;;20.43;;
14892;SDS011;7538;53.626;9.906;2022-11-27T05:43:40;39.40;;;21.17;;
14892;SDS011;7538;53.626;9.906;2022-11-27T05:46:07;47.73;;;21.87;;
14892;SDS011;7538;53.626;9.906;2022-11-27T05:48:36;42.83;;;21.43;;
14892;SDS011;7538;53.626;9.906;2022-11-27T05:51:03;36.73;;;19.67;;
14892;SDS011;7538;53.626;9.906;2022-11-27T05:53:30;41.83;;;21.33;;
14892;SDS011;7538;53.626;9.906;2022-11-27T05:55:59;38.20;;;22.10;;
14892;SDS011;7538;53.626;9.906;2022-11-27T05:58:27;39.00;;;20.37;;
14892;SDS011;7538;53.626;9.906;2022-11-27T06:00:56;38.43;;;20.63;;
14892;SDS011;7538;53.626;9.906;2022-11-27T06:03:23;43.70;;;21.57;;
14892;SDS011;7538;53.626;9.906;2022-11-27T06:05:50;38.77;;;21.70;;
14892;SDS011;7538;53.626;9.906;2022-11-27T06:08:18;38.93;;;22.47;;
14892;SDS011;7538;53.626;9.906;2022-11-27T06:10:45;34.97;;;19.53;;
14892;SDS011;7538;53.626;9.906;2022-11-27T06:13:12;36.80;;;20.93;;
14892;SDS011;7538;53.626;9.906;2022-11-27T06:15:40;31.43;;;19.73;;
14892;SDS011;7538;53.626;9.906;2022-11-27T06:18:09;44.03;;;23.07;;
14892;SDS011;7538;53.626;9.906;2022-11-27T06:20:36;37.93;;;21.00;;
14892;SDS011;7538;53.626;9.906;2022-11-27T06:23:03;45.20;;;23.27;;
14892;SDS011;7538;53.626;9.906;2022-11-27T06:25:30;38.47;;;22.23;;
14892;SDS011;7538;53.626;9.906;2022-11-27T06:27:57;42.40;;;23.13;;
14892;SDS011;7538;53.626;9.906;2022-11-27T06:30:24;34.90;;;19.83;;
14892;SDS011;7538;53.626;9.906;2022-11-27T06:32:51;41.73;;;23.53;;
14892;SDS011;7538;53.626;9.906;2022-11-27T06:35:19;40.57;;;21.00;;
14892;SDS011;7538;53.626;9.906;2022-11-27T06:37:46;40.40;;;22.43;;
14892;SDS011;7538;53.626;9.906;2022-11-27T06:40:13;46.00;;;21.83;;
14892;SDS011;7538;53.626;9.906;2022-11-27T06:42:40;32.63;;;19.37;;
14892;SDS011;7538;53.626;9.906;2022-11-27T06:45:08;31.33;;;19.57;;
14892;SDS011;7538;53.626;9.906;2022-11-27T06:47:36;39.50;;;21.57;;
14892;SDS011;7538;53.626;9.906;2022-11-27T06:50:03;30.50;;;18.30;;
14892;SDS011;7538;53.626;9.906;2022-11-27T06:52:32;36.80;;;20.57;;
14892;SDS011;7538;53.626;9.906;2022-11-27T06:54:59;33.63;;;19.53;;
14892;SDS011;7538;53.626;9.906;2022-11-27T06:57:26;38.70;;;20.23;;
14892;SDS011;7538;53.626;9.906;2022-11-27T06:59:54;34.00;;;18.57;;
14892;SDS011;7538;53.626;9.906;2022-11-27T07:02:20;33.37;;;18.80;;
14892;SDS011;7538;53.626;9.906;2022-11-27T07:04:47;26.83;;;16.60;;
14892;SDS011;7538;53.626;9.906;2022-11-27T07:07:14;28.67;;;19.23;;
14892;SDS011;7538;53.626;9.906;2022-11-27T07:09:42;28.30;;;17.17;;
14892;SDS011;7538;53.626;9.906;2022-11-27T07:12:09;26.17;;;15.67;;
14892;SDS011;7538;53.626;9.906;2022-11-27T07:14:36;28.47;;;18.17;;
14892;SDS011;7538;53.626;9.906;2022-11-27T07:17:03;30.00;;;17.33;;
14892;SDS011;7538;53.626;9.906;2022-11-27T07:19:30;28.40;;;18.43;;
14892;SDS011;7538;53.626;9.906;2022-11-27T07:21:57;34.80;;;19.23;;
14892;SDS011;7538;53.626;9.906;2022-11-27T07:24:24;33.07;;;19.37;;
14892;SDS011;7538;53.626;9.906;2022-11-27T07:26:52;37.87;;;19.70;;
14892;SDS011;7538;53.626;9.906;2022-11-27T07:29:19;32.90;;;18.60;;
14892;SDS011;7538;53.626;9.906;2022-11-27T07:31:46;25.70;;;17.20;;
14892;SDS011;7538;53.626;9.906;2022-11-27T07:34:15;31.37;;;17.90;;
14892;SDS011;7538;53.626;9.906;2022-11-27T07:36:42;31.10;;;17.83;;
14892;SDS011;7538;53.626;9.906;2022-11-27T07:39:09;34.27;;;18.90;;
14892;SDS011;7538;53.626;9.906;2022-11-27T07:41:36;30.57;;;16.87;;
14892;SDS011;7538;53.626;9.906;2022-11-27T07:44:04;29.30;;;17.93;;
14892;SDS011;7538;53.626;9.906;2022-11-27T07:46:31;28.37;;;18.10;;
14892;SDS011;7538;53.626;9.906;2022-11-27T07:48:58;30.13;;;18.10;;
14892;SDS011;7538;53.626;9.906;2022-11-27T07:51:25;34.13;;;18.00;;
14892;SDS011;7538;53.626;9.906;2022-11-27T07:53:52;33.13;;;18.80;;
14892;SDS011;7538;53.626;9.906;2022-11-27T07:56:19;31.53;;;18.33;;
14892;SDS011;7538;53.626;9.906;2022-11-27T07:58:47;35.77;;;19.47;;
14892;SDS011;7538;53.626;9.906;2022-11-27T08:01:16;36.20;;;18.97;;
14892;SDS011;7538;53.626;9.906;2022-11-27T08:03:45;28.93;;;17.27;;
14892;SDS011;7538;53.626;9.906;2022-11-27T08:06:14;30.87;;;17.33;;
14892;SDS011;7538;53.626;9.906;2022-11-27T08:08:42;31.30;;;17.97;;
14892;SDS011;7538;53.626;9.906;2022-11-27T08:11:20;33.33;;;16.37;;
14892;SDS011;7538;53.626;9.906;2022-11-27T08:13:49;24.30;;;15.83;;
14892;SDS011;7538;53.626;9.906;2022-11-27T08:16:17;30.97;;;16.60;;
14892;SDS011;7538;53.626;9.906;2022-11-27T08:18:44;32.60;;;17.53;;
14892;SDS011;7538;53.626;9.906;2022-11-27T08:21:11;25.13;;;15.77;;
14892;SDS011;7538;53.626;9.906;2022-11-27T08:23:38;22.43;;;14.53;;
14892;SDS011;7538;53.626;9.906;2022-11-27T08:26:05;30.67;;;17.27;;
14892;SDS011;7538;53.626;9.906;2022-11-27T08:28:34;26.93;;;16.37;;
14892;SDS011;7538;53.626;9.906;2022-11-27T08:31:01;24.43;;;15.73;;
14892;SDS011;7538;53.626;9.906;2022-11-27T08:33:33;22.07;;;15.20;;
14892;SDS011;7538;53.626;9.906;2022-11-27T08:36:00;24.83;;;13.27;;
14892;SDS011;7538;53.626;9.906;2022-11-27T08:38:27;25.07;;;14.80;;
14892;SDS011;7538;53.626;9.906;2022-11-27T08:40:54;21.50;;;13.80;;
14892;SDS011;7538;53.626;9.906;2022-11-27T08:43:22;21.40;;;13.97;;
14892;SDS011;7538;53.626;9.906;2022-11-27T08:45:50;23.53;;;13.13;;
14892;SDS011;7538;53.626;9.906;2022-11-27T08:48:17;22.17;;;12.97;;
14892;SDS011;7538;53.626;9.906;2022-11-27T08:50:46;22.23;;;13.03;;
14892;SDS011;7538;53.626;9.906;2022-11-27T08:53:13;21.97;;;13.03;;
14892;SDS011;7538;53.626;9.906;2022-11-27T08:55:41;19.63;;;12.43;;
14892;SDS011;7538;53.626;9.906;2022-11-27T08:58:08;23.23;;;13.73;;
14892;SDS011;7538;53.626;9.906;2022-11-27T09:00:36;21.83;;;12.97;;
14892;SDS011;7538;53.626;9.906;2022-11-27T09:03:04;19.57;;;12.20;;
14892;SDS011;7538;53.626;9.906;2022-11-27T09:05:32;25.37;;;12.73;;
14892;SDS011;7538;53.626;9.906;2022-11-27T09:08:00;16.37;;;11.77;;
14892;SDS011;7538;53.626;9.906;2022-11-27T09:10:29;19.23;;;12.03;;
14892;SDS011;7538;53.626;9.906;2022-11-27T09:12:56;19.70;;;11.87;;
14892;SDS011;7538;53.626;9.906;2022-11-27T09:15:23;19.53;;;12.03;;
14892;SDS011;7538;53.626;9.906;2022-11-27T09:17:50;19.20;;;12.00;;
14892;SDS011;7538;53.626;9.906;2022-11-27T09:20:18;18.07;;;11.27;;
14892;SDS011;7538;53.626;9.906;2022-11-27T09:22:45;15.87;;;10.93;;
14892;SDS011;7538;53.626;9.906;2022-11-27T09:25:13;17.13;;;11.17;;
14892;SDS011;7538;53.626;9.906;2022-11-27T09:27:40;18.57;;;10.67;;
14892;SDS011;7538;53.626;9.906;2022-11-27T09:30:07;16.60;;;10.13;;
14892;SDS011;7538;53.626;9.906;2022-11-27T09:32:35;17.60;;;9.77;;
14892;SDS011;7538;53.626;9.906;2022-11-27T09:35:02;15.43;;;9.73;;
14892;SDS011;7538;53.626;9.906;2022-11-27T09:37:29;19.10;;;9.50;;
14892;SDS011;7538;53.626;9.906;2022-11-27T09:39:56;16.00;;;10.17;;
14892;SDS011;7538;53.626;9.906;2022-11-27T09:42:32;14.90;;;9.67;;
14892;SDS011;7538;53.626;9.906;2022-11-27T09:45:04;19.53;;;11.23;;
14892;SDS011;7538;53.626;9.906;2022-11-27T09:47:37;17.03;;;9.57;;
14892;SDS011;7538;53.626;9.906;2022-11-27T09:50:10;15.00;;;9.33;;
14892;SDS011;7538;53.626;9.906;2022-11-27T09:52:40;14.53;;;8.90;;
14892;SDS011;7538;53.626;9.906;2022-11-27T09:55:11;13.90;;;8.55;;
14892;SDS011;7538;53.626;9.906;2022-11-27T09:57:45;12.77;;;8.57;;
14892;SDS011;7538;53.626;9.906;2022-11-27T10:00:20;12.20;;;8.65;;
14892;SDS011;7538;53.626;9.906;2022-11-27T10:02:47;11.80;;;8.23;;
14892;SDS011;7538;53.626;9.906;2022-11-27T10:05:16;12.73;;;8.97;;
14892;SDS011;7538;53.626;9.906;2022-11-27T10:07:56;12.07;;;8.77;;
14892;SDS011;7538;53.626;9.906;2022-11-27T10:10:48;13.03;;;8.67;;
14892;SDS011;7538;53.626;9.906;2022-11-27T10:13:33;13.53;;;8.57;;
14892;SDS011;7538;53.626;9.906;2022-11-27T10:16:16;12.53;;;9.13;;
14892;SDS011;7538;53.626;9.906;2022-11-27T10:18:51;15.80;;;9.53;;
14892;SDS011;7538;53.626;9.906;2022-11-27T10:21:22;15.13;;;9.70;;
14892;SDS011;7538;53.626;9.906;2022-11-27T10:23:55;10.27;;;9.17;;
14892;SDS011;7538;53.626;9.906;2022-11-27T10:26:30;15.77;;;9.93;;
14892;SDS011;7538;53.626;9.906;2022-11-27T10:29:08;14.60;;;8.77;;
14892;SDS011;7538;53.626;9.906;2022-11-27T10:31:44;15.00;;;9.83;;
14892;SDS011;7538;53.626;9.906;2022-11-27T10:34:19;15.10;;;8.80;;
14892;SDS011;7538;53.626;9.906;2022-11-27T10:36:51;14.30;;;9.27;;
14892;SDS011;7538;53.626;9.906;2022-11-27T10:39:21;17.97;;;9.90;;
14892;SDS011;7538;53.626;9.906;2022-11-27T10:41:55;13.87;;;10.30;;
14892;SDS011;7538;53.626;9.906;2022-11-27T10:44:30;14.00;;;9.33;;
14892;SDS011;7538;53.626;9.906;2022-11-27T10:47:00;16.33;;;9.37;;
14892;SDS011;7538;53.626;9.906;2022-11-27T10:49:29;13.73;;;8.80;;
14892;SDS011;7538;53.626;9.906;2022-11-27T10:51:56;13.33;;;8.57;;
14892;SDS011;7538;53.626;9.906;2022-11-27T10:54:25;12.73;;;9.27;;
14892;SDS011;7538;53.626;9.906;2022-11-27T10:56:57;14.93;;;8.97;;
14892;SDS011;7538;53.626;9.906;2022-11-27T10:59:36;14.77;;;8.33;;
14892;SDS011;7538;53.626;9.906;2022-11-27T11:04:51;14.20;;;8.37;;
14892;SDS011;7538;53.626;9.906;2022-11-27T11:07:21;16.63;;;9.60;;
14892;SDS011;7538;53.626;9.906;2022-11-27T11:09:50;12.03;;;8.70;;
14892;SDS011;7538;53.626;9.906;2022-11-27T11:12:18;13.20;;;8.73;;
14892;SDS011;7538;53.626;9.906;2022-11-27T11:14:51;13.40;;;9.30;;
14892;SDS011;7538;53.626;9.906;2022-11-27T11:17:23;13.23;;;8.67;;
14892;SDS011;7538;53.626;9.906;2022-11-27T11:19:51;14.00;;;9.60;;
14892;SDS011;7538;53.626;9.906;2022-11-27T11:22:18;14.03;;;9.03;;
14892;SDS011;7538;53.626;9.906;2022-11-27T11:24:47;10.23;;;7.23;;
14892;SDS011;7538;53.626;9.906;2022-11-27T11:27:16;14.17;;;8.87;;
14892;SDS011;7538;53.626;9.906;2022-11-27T11:29:46;13.63;;;9.33;;
14892;SDS011;7538;53.626;9.906;2022-11-27T11:32:20;14.17;;;9.63;;
14892;SDS011;7538;53.626;9.906;2022-11-27T11:34:52;12.33;;;9.87;;
14892;SDS011;7538;53.626;9.906;2022-11-27T11:37:22;15.00;;;10.00;;
14892;SDS011;7538;53.626;9.906;2022-11-27T11:39:52;15.43;;;9.43;;
14892;SDS011;7538;53.626;9.906;2022-11-27T11:42:22;10.17;;;8.63;;
14892;SDS011;7538;53.626;9.906;2022-11-27T11:44:52;15.07;;;9.87;;
14892;SDS011;7538;53.626;9.906;2022-11-27T11:47:22;13.43;;;9.33;;
14892;SDS011;7538;53.626;9.906;2022-11-27T11:49:50;13.67;;;8.50;;
14892;SDS011;7538;53.626;9.906;2022-11-27T11:52:23;13.73;;;9.17;;
14892;SDS011;7538;53.626;9.906;2022-11-27T11:55:11;13.63;;;9.10;;
14892;SDS011;7538;53.626;9.906;2022-11-27T11:57:55;11.60;;;8.67;;
14892;SDS011;7538;53.626;9.906;2022-11-27T12:00:36;14.77;;;8.10;;
14892;SDS011;7538;53.626;9.906;2022-11-27T12:03:32;12.77;;;8.50;;
14892;SDS011;7538;53.626;9.906;2022-11-27T12:09:17;15.13;;;8.50;;
14892;SDS011;7538;53.626;9.906;2022-11-27T12:12:02;12.53;;;8.43;;
14892;SDS011;7538;53.626;9.906;2022-11-27T12:14:39;13.70;;;9.03;;
14892;SDS011;7538;53.626;9.906;2022-11-27T12:17:15;12.27;;;8.97;;
14892;SDS011;7538;53.626;9.906;2022-11-27T12:20:00;12.97;;;8.50;;
14892;SDS011;7538;53.626;9.906;2022-11-27T12:22:40;13.97;;;8.97;;
14892;SDS011;7538;53.626;9.906;2022-11-27T12:25:27;14.40;;;8.10;;
14892;SDS011;7538;53.626;9.906;2022-11-27T12:28:03;10.87;;;7.67;;
14892;SDS011;7538;53.626;9.906;2022-11-27T12:30:43;12.67;;;7.80;;
14892;SDS011;7538;53.626;9.906;2022-11-27T12:33:32;10.87;;;7.83;;
14892;SDS011;7538;53.626;9.906;2022-11-27T12:36:12;11.60;;;7.40;;
14892;SDS011;7538;53.626;9.906;2022-11-27T12:38:48;13.50;;;7.90;;
14892;SDS011;7538;53.626;9.906;2022-11-27T12:41:35;10.60;;;7.97;;
14892;SDS011;7538;53.626;9.906;2022-11-27T12:44:20;13.47;;;7.83;;
14892;SDS011;7538;53.626;9.906;2022-11-27T12:46:59;10.80;;;7.30;;
14892;SDS011;7538;53.626;9.906;2022-11-27T12:49:33;14.17;;;7.50;;
14892;SDS011;7538;53.626;9.906;2022-11-27T12:52:09;11.60;;;6.88;;
14892;SDS011;7538;53.626;9.906;2022-11-27T12:54:43;10.67;;;7.00;;
14892;SDS011;7538;53.626;9.906;2022-11-27T12:57:16;10.47;;;7.90;;
14892;SDS011;7538;53.626;9.906;2022-11-27T12:59:47;10.37;;;7.43;;
14892;SDS011;7538;53.626;9.906;2022-11-27T13:02:22;8.93;;;7.07;;
14892;SDS011;7538;53.626;9.906;2022-11-27T13:04:56;9.93;;;7.33;;
14892;SDS011;7538;53.626;9.906;2022-11-27T13:07:28;11.17;;;8.07;;
14892;SDS011;7538;53.626;9.906;2022-11-27T13:10:08;10.43;;;7.50;;
14892;SDS011;7538;53.626;9.906;2022-11-27T13:12:42;12.17;;;6.40;;
14892;SDS011;7538;53.626;9.906;2022-11-27T13:15:16;13.03;;;7.70;;
14892;SDS011;7538;53.626;9.906;2022-11-27T13:17:49;10.40;;;7.07;;
14892;SDS011;7538;53.626;9.906;2022-11-27T13:20:23;10.87;;;6.90;;
14892;SDS011;7538;53.626;9.906;2022-11-27T13:22:57;12.87;;;6.60;;
14892;SDS011;7538;53.626;9.906;2022-11-27T13:25:24;14.07;;;9.67;;
14892;SDS011;7538;53.626;9.906;2022-11-27T13:27:52;11.43;;;8.20;;
14892;SDS011;7538;53.626;9.906;2022-11-27T13:30:21;10.23;;;7.30;;
14892;SDS011;7538;53.626;9.906;2022-11-27T13:32:50;10.77;;;7.10;;
14892;SDS011;7538;53.626;9.906;2022-11-27T13:35:21;11.13;;;6.73;;
14892;SDS011;7538;53.626;9.906;2022-11-27T13:37:55;10.77;;;6.50;;
14892;SDS011;7538;53.626;9.906;2022-11-27T13:40:29;12.27;;;7.00;;
14892;SDS011;7538;53.626;9.906;2022-11-27T13:43:03;9.83;;;6.90;;
14892;SDS011;7538;53.626;9.906;2022-11-27T13:45:39;9.80;;;6.90;;
14892;SDS011;7538;53.626;9.906;2022-11-27T13:48:17;11.07;;;6.70;;
14892;SDS011;7538;53.626;9.906;2022-11-27T13:50:57;11.07;;;7.17;;
14892;SDS011;7538;53.626;9.906;2022-11-27T13:53:33;9.63;;;6.47;;
14892;SDS011;7538;53.626;9.906;2022-11-27T13:56:02;9.53;;;6.93;;
14892;SDS011;7538;53.626;9.906;2022-11-27T13:58:30;9.87;;;6.37;;
14892;SDS011;7538;53.626;9.906;2022-11-27T14:00:58;10.73;;;6.90;;
14892;SDS011;7538;53.626;9.906;2022-11-27T14:03:37;10.83;;;7.30;;
14892;SDS011;7538;53.626;9.906;2022-11-27T14:06:13;9.83;;;6.60;;
14892;SDS011;7538;53.626;9.906;2022-11-27T14:08:48;10.83;;;7.30;;
14892;SDS011;7538;53.626;9.906;2022-11-27T14:11:28;11.80;;;7.60;;
14892;SDS011;7538;53.626;9.906;2022-11-27T14:13:58;9.40;;;6.57;;
14892;SDS011;7538;53.626;9.906;2022-11-27T14:16:27;9.13;;;6.13;;
14892;SDS011;7538;53.626;9.906;2022-11-27T14:18:56;8.53;;;6.43;;
14892;SDS011;7538;53.626;9.906;2022-11-27T14:21:32;10.53;;;7.07;;
14892;SDS011;7538;53.626;9.906;2022-11-27T14:26:52;9.40;;;7.03;;
14892;SDS011;7538;53.626;9.906;2022-11-27T14:29:20;9.13;;;7.07;;
14892;SDS011;7538;53.626;9.906;2022-11-27T14:31:55;9.90;;;6.63;;
14892;SDS011;7538;53.626;9.906;2022-11-27T14:34:28;10.67;;;7.00;;
14892;SDS011;7538;53.626;9.906;2022-11-27T14:36:56;9.67;;;7.37;;
14892;SDS011;7538;53.626;9.906;2022-11-27T14:39:27;9.87;;;6.60;;
14892;SDS011;7538;53.626;9.906;2022-11-27T14:41:55;13.67;;;7.23;;
14892;SDS011;7538;53.626;9.906;2022-11-27T14:44:23;9.40;;;7.07;;
14892;SDS011;7538;53.626;9.906;2022-11-27T14:46:50;13.17;;;7.17;;
14892;SDS011;7538;53.626;9.906;2022-11-27T14:49:18;8.20;;;6.50;;
14892;SDS011;7538;53.626;9.906;2022-11-27T14:51:46;9.33;;;6.67;;
14892;SDS011;7538;53.626;9.906;2022-11-27T14:54:16;14.23;;;8.17;;
14892;SDS011;7538;53.626;9.906;2022-11-27T14:56:48;11.10;;;7.23;;
14892;SDS011;7538;53.626;9.906;2022-11-27T14:59:16;12.57;;;7.30;;
14892;SDS011;7538;53.626;9.906;2022-11-27T15:01:46;10.07;;;6.77;;
14892;SDS011;7538;53.626;9.906;2022-11-27T15:04:25;12.13;;;6.47;;
14892;SDS011;7538;53.626;9.906;2022-11-27T15:06:53;10.17;;;7.90;;
14892;SDS011;7538;53.626;9.906;2022-11-27T15:09:22;10.40;;;7.37;;
14892;SDS011;7538;53.626;9.906;2022-11-27T15:11:53;11.23;;;7.13;;